Time;durP1;ratioP1;P1;durP2;ratioP2;P2;SDS_P1;SDS_P2;PMS_P1;PMS_P2;Temp;Humidity;BMP_temperature;BMP_pressure;BME280_temperature;BME280_humidity;BME280_pressure;Samples;Min_cycle;Max_cycle;Signal;HPM_P1;HPM_P2
2023/01/02 00:00:18;;;;;;;4.70;2.60;;;18.50;67.30;;;;;;5020989;28;20203;-71
2023/01/02 00:02:44;;;;;;;4.70;2.78;;;18.50;67.30;;;;;;5022728;28;20237;-71
2023/01/02 00:05:10;;;;;;;4.88;2.85;;;18.50;67.30;;;;;;5031730;28;20210;-71
2023/01/02 00:07:37;;;;;;;4.55;3.40;;;18.50;67.20;;;;;;5051973;28;20193;-71
2023/01/02 00:10:04;;;;;;;4.10;2.75;;;18.50;67.20;;;;;;5050326;28;20244;-71
2023/01/02 00:12:30;;;;;;;4.65;3.22;;;18.50;67.20;;;;;;5022667;28;20279;-71
2023/01/02 00:14:55;;;;;;;3.72;2.90;;;18.50;67.20;;;;;;5039131;28;20210;-71
2023/01/02 00:17:21;;;;;;;3.83;3.05;;;18.50;67.20;;;;;;5043433;28;20193;-72
2023/01/02 00:19:47;;;;;;;5.57;3.20;;;18.50;67.10;;;;;;5046832;28;20195;-71
2023/01/02 00:22:13;;;;;;;4.00;3.15;;;18.50;67.20;;;;;;5048048;28;20273;-71
2023/01/02 00:24:38;;;;;;;4.97;3.58;;;18.50;67.00;;;;;;5030716;28;20298;-71
2023/01/02 00:27:04;;;;;;;3.53;2.83;;;18.50;67.10;;;;;;5014591;28;20186;-71
2023/01/02 00:29:30;;;;;;;4.72;4.00;;;18.50;67.10;;;;;;5042102;28;20220;-71
2023/01/02 00:31:56;;;;;;;4.50;3.33;;;18.50;67.00;;;;;;5038384;28;20239;-71
2023/01/02 00:34:21;;;;;;;5.00;3.33;;;18.40;67.00;;;;;;5044379;28;20341;-71
2023/01/02 00:36:47;;;;;;;4.63;3.70;;;18.50;67.10;;;;;;5038093;28;20198;-71
2023/01/02 00:39:13;;;;;;;4.30;3.22;;;18.50;67.00;;;;;;5037588;28;20182;-71
2023/01/02 00:41:38;;;;;;;4.07;3.15;;;18.50;67.10;;;;;;5054567;28;20215;-71
2023/01/02 00:44:04;;;;;;;4.07;3.33;;;18.50;67.00;;;;;;5054611;28;20206;-72
2023/01/02 00:46:30;;;;;;;4.75;3.30;;;18.50;67.00;;;;;;5026377;28;20192;-71
2023/01/02 00:48:55;;;;;;;4.60;3.60;;;18.40;66.90;;;;;;5026375;28;20180;-71
2023/01/02 00:51:21;;;;;;;5.03;3.15;;;18.50;67.00;;;;;;5034063;28;20758;-71
2023/01/02 00:53:47;;;;;;;5.10;3.15;;;18.40;66.90;;;;;;5026096;28;20194;-71
2023/01/02 00:56:13;;;;;;;4.97;3.55;;;18.50;67.00;;;;;;5025905;28;20183;-71
2023/01/02 00:58:38;;;;;;;4.60;3.50;;;18.50;66.90;;;;;;5051250;28;20183;-71
2023/01/02 01:01:04;;;;;;;4.43;3.83;;;18.40;66.90;;;;;;5017650;28;20223;-71
2023/01/02 01:03:30;;;;;;;4.40;3.00;;;18.50;66.90;;;;;;5009244;28;20180;-71
2023/01/02 01:05:56;;;;;;;4.55;3.15;;;18.40;66.80;;;;;;5025911;28;20203;-71
2023/01/02 01:08:22;;;;;;;3.75;2.95;;;18.50;66.90;;;;;;5035013;28;20317;-71
2023/01/02 01:10:47;;;;;;;4.32;3.58;;;18.50;66.90;;;;;;5020745;28;20179;-71
2023/01/02 01:13:13;;;;;;;2.97;2.60;;;18.50;66.90;;;;;;5037217;28;20174;-71
2023/01/02 01:15:39;;;;;;;4.78;3.33;;;18.40;66.90;;;;;;5009375;28;20217;-71
2023/01/02 01:18:04;;;;;;;3.72;2.60;;;18.40;66.80;;;;;;5037384;28;20194;-71
2023/01/02 01:20:30;;;;;;;4.40;3.17;;;18.50;66.80;;;;;;5012520;28;20190;-71
2023/01/02 01:22:56;;;;;;;3.85;2.78;;;18.40;66.70;;;;;;5022281;28;20222;-71
2023/01/02 01:25:22;;;;;;;3.88;2.80;;;18.50;66.90;;;;;;5025196;28;20264;-71
2023/01/02 01:27:51;;;;;;;3.30;2.83;;;18.40;66.80;;;;;;5048532;28;20195;-71
2023/01/02 01:30:19;;;;;;;3.47;2.67;;;18.40;66.70;;;;;;5036946;28;20186;-71
2023/01/02 01:32:44;;;;;;;3.65;2.95;;;18.50;66.80;;;;;;5041453;28;20302;-71
2023/01/02 01:35:10;;;;;;;2.55;2.30;;;18.50;66.80;;;;;;5046901;28;20191;-71
2023/01/02 01:37:38;;;;;;;3.20;2.60;;;18.50;66.80;;;;;;5020854;28;20214;-72
2023/01/02 01:40:05;;;;;;;4.32;2.47;;;18.40;66.70;;;;;;5028457;28;20186;-72
2023/01/02 01:42:33;;;;;;;3.78;2.50;;;18.40;66.70;;;;;;5025517;28;20217;-71
2023/01/02 01:44:58;;;;;;;4.32;2.70;;;18.50;66.80;;;;;;5017302;28;20210;-71
2023/01/02 01:47:44;;;;;;;4.80;2.75;;;18.40;66.60;;;;;;5018813;28;20183;-71
2023/01/02 01:50:18;;;;;;;2.90;2.38;;;18.40;66.70;;;;;;5039967;28;20178;-71
2023/01/02 01:53:03;;;;;;;2.67;2.25;;;18.40;66.70;;;;;;5039298;28;20216;-71
2023/01/02 01:55:47;;;;;;;3.30;2.38;;;18.50;66.70;;;;;;5025762;28;20204;-71
2023/01/02 01:58:21;;;;;;;4.13;2.60;;;18.50;66.70;;;;;;5008542;28;20548;-72
2023/01/02 02:00:48;;;;;;;2.50;2.03;;;18.50;66.60;;;;;;5034109;28;20735;-72
2023/01/02 02:03:23;;;;;;;2.92;2.45;;;18.40;66.50;;;;;;5042810;28;20179;-71
2023/01/02 02:05:49;;;;;;;3.25;2.53;;;18.50;66.60;;;;;;5022967;28;20203;-71
2023/01/02 02:08:25;;;;;;;2.90;2.30;;;18.40;66.50;;;;;;5042024;28;20240;-71
2023/01/02 02:10:54;;;;;;;2.33;2.10;;;18.50;66.60;;;;;;5016721;28;20278;-71
2023/01/02 02:13:20;;;;;;;3.03;2.28;;;18.40;66.50;;;;;;5016396;28;20654;-71
2023/01/02 02:16:14;;;;;;;2.78;2.30;;;18.50;66.60;;;;;;5026227;28;20290;-72
2023/01/02 02:19:27;;;;;;;2.45;2.22;;;18.40;66.50;;;;;;4989408;28;20191;-71
2023/01/02 02:22:27;;;;;;;3.13;2.50;;;18.50;66.60;;;;;;5024171;28;20219;-71
2023/01/02 02:25:30;;;;;;;2.88;2.33;;;18.40;66.40;;;;;;5013774;28;20609;-71
2023/01/02 02:28:26;;;;;;;2.42;2.08;;;18.50;66.50;;;;;;5013802;28;20191;-72
2023/01/02 02:31:08;;;;;;;2.75;2.45;;;18.50;66.60;;;;;;5013388;28;20189;-72
2023/01/02 02:34:09;;;;;;;2.75;1.90;;;18.40;66.40;;;;;;5011407;28;20190;-71
2023/01/02 02:37:07;;;;;;;2.50;2.28;;;18.40;66.40;;;;;;4966359;28;20228;-71
2023/01/02 02:39:44;;;;;;;2.10;1.90;;;18.40;66.40;;;;;;5015675;28;20270;-71
2023/01/02 02:42:59;;;;;;;2.40;1.90;;;18.40;66.40;;;;;;5007529;28;20207;-71
2023/01/02 02:45:48;;;;;;;2.45;2.08;;;18.40;66.40;;;;;;5024242;28;20213;-71
2023/01/02 02:48:27;;;;;;;2.55;2.15;;;18.40;66.30;;;;;;5024052;28;20190;-71
2023/01/02 02:51:04;;;;;;;2.70;1.92;;;18.50;66.50;;;;;;5021894;28;20194;-71
2023/01/02 02:53:54;;;;;;;3.33;1.90;;;18.40;66.40;;;;;;5015490;28;20270;-71
2023/01/02 02:56:26;;;;;;;2.38;1.83;;;18.50;66.50;;;;;;5015860;28;20331;-71
2023/01/02 02:58:53;;;;;;;2.58;1.67;;;18.40;66.30;;;;;;5041763;28;20194;-71
2023/01/02 03:01:26;;;;;;;3.45;1.63;;;18.40;66.30;;;;;;5023541;28;20211;-72
2023/01/02 03:03:52;;;;;;;1.70;1.55;;;18.40;66.30;;;;;;5015399;28;20203;-71
2023/01/02 03:06:39;;;;;;;2.50;1.90;;;18.40;66.30;;;;;;5018257;28;20190;-71
2023/01/02 03:09:26;;;;;;;2.28;1.80;;;18.40;66.30;;;;;;5023346;28;20209;-71
2023/01/02 03:12:11;;;;;;;2.55;1.50;;;18.40;66.30;;;;;;5017540;28;20211;-72
2023/01/02 03:15:05;;;;;;;2.10;1.60;;;18.40;66.30;;;;;;5015651;28;20662;-71
2023/01/02 03:18:05;;;;;;;1.52;1.42;;;18.40;66.20;;;;;;5032896;28;20187;-71
2023/01/02 03:20:39;;;;;;;2.30;2.00;;;18.40;66.20;;;;;;5016397;28;20229;-71
2023/01/02 03:23:14;;;;;;;2.03;1.58;;;18.40;66.20;;;;;;5007231;28;20214;-72
2023/01/02 03:25:43;;;;;;;2.13;1.77;;;18.40;66.20;;;;;;5023068;28;20301;-71
2023/01/02 03:28:12;;;;;;;2.38;1.77;;;18.40;66.30;;;;;;5030533;28;20190;-72
2023/01/02 03:30:41;;;;;;;2.15;1.73;;;18.40;66.20;;;;;;5034959;28;20178;-71
2023/01/02 03:33:16;;;;;;;2.17;1.58;;;18.40;66.20;;;;;;5045530;28;20207;-71
2023/01/02 03:36:05;;;;;;;2.78;1.60;;;18.40;66.20;;;;;;5007075;28;20278;-71
2023/01/02 03:38:46;;;;;;;2.47;1.70;;;18.40;66.20;;;;;;5008588;28;20243;-71
2023/01/02 03:41:25;;;;;;;1.88;1.60;;;18.40;66.10;;;;;;5009780;28;20220;-71
2023/01/02 03:43:55;;;;;;;2.10;1.45;;;18.40;66.20;;;;;;5052588;28;20209;-72
2023/01/02 03:46:37;;;;;;;1.63;1.48;;;18.40;66.10;;;;;;5034548;28;20256;-71
2023/01/02 03:49:25;;;;;;;2.03;1.60;;;18.40;66.10;;;;;;5026452;28;20277;-71
2023/01/02 03:51:52;;;;;;;1.67;1.58;;;18.40;66.10;;;;;;5029880;28;20298;-71
2023/01/02 03:54:19;;;;;;;2.35;1.60;;;18.40;66.10;;;;;;5022870;28;20198;-71
2023/01/02 03:57:09;;;;;;;1.70;1.40;;;18.40;66.10;;;;;;5022652;28;20262;-72
2023/01/02 04:00:02;;;;;;;1.88;1.60;;;18.40;66.10;;;;;;5021834;28;20187;-71
2023/01/02 04:02:36;;;;;;;2.30;1.80;;;18.40;66.00;;;;;;5030931;28;20218;-71
2023/01/02 04:05:36;;;;;;;2.65;1.40;;;18.40;66.00;;;;;;5039521;28;20217;-71
2023/01/02 04:08:24;;;;;;;1.73;1.60;;;18.40;66.00;;;;;;5033953;28;20190;-71
2023/01/02 04:10:54;;;;;;;1.60;1.45;;;18.40;66.00;;;;;;5006518;28;20190;-71
2023/01/02 04:13:42;;;;;;;1.55;1.27;;;18.40;66.10;;;;;;5023181;28;20183;-71
2023/01/02 04:16:14;;;;;;;1.98;1.60;;;18.40;66.00;;;;;;5010907;28;20180;-71
2023/01/02 04:18:47;;;;;;;1.30;1.20;;;18.40;66.00;;;;;;5040295;28;20180;-71
2023/01/02 04:21:22;;;;;;;1.50;1.40;;;18.40;66.00;;;;;;5055756;22;20214;-65
2023/01/02 04:24:14;;;;;;;1.83;1.40;;;18.40;66.00;;;;;;5004909;28;20190;-67
2023/01/02 04:26:51;;;;;;;2.00;1.58;;;18.40;66.00;;;;;;5030662;28;20211;-67
2023/01/02 04:29:17;;;;;;;1.48;1.38;;;18.40;66.00;;;;;;5030608;28;20272;-66
2023/01/02 04:32:02;;;;;;;2.25;1.17;;;18.40;65.90;;;;;;5051670;28;20292;-67
2023/01/02 04:34:34;;;;;;;2.90;1.90;;;18.40;66.00;;;;;;5024568;28;20222;-66
2023/01/02 04:37:00;;;;;;;2.10;1.30;;;18.40;65.90;;;;;;5011562;28;20214;-67
2023/01/02 04:39:27;;;;;;;1.55;1.45;;;18.40;66.00;;;;;;5025774;28;20187;-67
2023/01/02 04:41:54;;;;;;;1.35;1.25;;;18.40;66.00;;;;;;5020660;28;20299;-66
2023/01/02 04:44:20;;;;;;;1.67;1.38;;;18.40;65.90;;;;;;5030608;28;20206;-67
2023/01/02 04:46:46;;;;;;;2.22;1.45;;;18.40;65.90;;;;;;5017660;28;20193;-67
2023/01/02 04:49:12;;;;;;;1.23;1.13;;;18.40;65.90;;;;;;5018295;28;20190;-67
2023/01/02 04:51:37;;;;;;;1.50;1.30;;;18.40;65.80;;;;;;5013361;28;20219;-67
2023/01/02 04:54:03;;;;;;;1.52;1.30;;;18.40;65.90;;;;;;5014312;28;20193;-67
2023/01/02 04:56:29;;;;;;;2.70;1.40;;;18.40;65.90;;;;;;5031528;28;20244;-65
2023/01/02 04:58:55;;;;;;;1.50;1.40;;;18.40;65.90;;;;;;5033531;28;20289;-64
2023/01/02 05:01:21;;;;;;;1.35;1.25;;;18.40;65.90;;;;;;5025505;28;20195;-69
2023/01/02 05:03:50;;;;;;;1.40;1.30;;;18.40;65.90;;;;;;5017857;28;20186;-67
2023/01/02 05:06:15;;;;;;;1.27;1.02;;;18.40;65.80;;;;;;5030411;28;20181;-67
2023/01/02 05:08:42;;;;;;;0.93;0.93;;;18.40;65.80;;;;;;5025170;28;20190;-66
2023/01/02 05:11:18;;;;;;;1.73;1.38;;;18.40;65.80;;;;;;5051481;28;20197;-67
2023/01/02 05:13:44;;;;;;;1.77;1.38;;;18.40;65.80;;;;;;5034890;28;20178;-66
2023/01/02 05:16:10;;;;;;;1.40;1.30;;;18.40;65.80;;;;;;5018267;28;20220;-66
2023/01/02 05:18:36;;;;;;;1.75;1.20;;;18.40;65.80;;;;;;5018717;28;20182;-67
2023/01/02 05:23:47;;;;;;;1.30;0.93;;;18.40;65.80;;;;;;5035248;28;20206;-67
2023/01/02 05:24:00;;;;;;;1.30;1.20;;;18.40;65.80;;;;;;5037245;28;20272;-67
2023/01/02 05:26:26;;;;;;;1.65;1.17;;;18.40;65.80;;;;;;5020560;28;20179;-67
2023/01/02 05:28:53;;;;;;;1.25;1.02;;;18.40;65.80;;;;;;5020616;28;20277;-67
2023/01/02 05:31:20;;;;;;;1.67;1.10;;;18.40;65.70;;;;;;5020719;28;20231;-66
2023/01/02 05:33:53;;;;;;;1.23;0.98;;;18.40;65.70;;;;;;5020403;28;20183;-67
2023/01/02 05:36:21;;;;;;;1.10;1.00;;;18.40;65.80;;;;;;5020520;28;20269;-67
2023/01/02 05:38:46;;;;;;;1.42;1.20;;;18.40;65.80;;;;;;5033475;28;20190;-67
2023/01/02 05:41:13;;;;;;;1.05;1.05;;;18.40;65.70;;;;;;5015834;28;20182;-67
2023/01/02 05:43:40;;;;;;;1.60;1.20;;;18.40;65.80;;;;;;5044010;28;20187;-66
2023/01/02 05:46:09;;;;;;;1.15;0.98;;;18.40;65.70;;;;;;5016904;28;20183;-67
2023/01/02 05:48:36;;;;;;;1.67;1.10;;;18.40;65.70;;;;;;5017065;28;20180;-67
2023/01/02 05:51:04;;;;;;;1.17;1.08;;;18.40;65.70;;;;;;5016818;28;20194;-67
2023/01/02 05:53:31;;;;;;;1.90;1.20;;;18.40;65.70;;;;;;5033865;28;20264;-67
2023/01/02 05:56:16;;;;;;;1.50;1.30;;;18.40;65.70;;;;;;5024058;28;20305;-66
2023/01/02 05:58:45;;;;;;;1.35;1.00;;;18.40;65.70;;;;;;5016501;28;20190;-66
2023/01/02 06:01:14;;;;;;;1.35;1.25;;;18.40;65.60;;;;;;5022960;28;20198;-66
2023/01/02 06:03:43;;;;;;;1.77;1.02;;;18.40;65.60;;;;;;5034583;28;20183;-67
2023/01/02 06:06:10;;;;;;;1.42;0.98;;;18.40;65.60;;;;;;5014927;28;20228;-67
2023/01/02 06:08:36;;;;;;;1.38;1.10;;;18.40;65.50;;;;;;5043862;28;20305;-66
2023/01/02 06:11:04;;;;;;;1.40;1.27;;;18.30;65.50;;;;;;5016742;28;20222;-67
2023/01/02 06:13:32;;;;;;;2.08;1.20;;;18.40;65.50;;;;;;5011151;28;20223;-67
2023/01/02 06:15:59;;;;;;;1.30;1.20;;;18.40;65.50;;;;;;5016747;28;20194;-66
2023/01/02 06:18:26;;;;;;;1.30;1.20;;;18.40;66.30;;;;;;5021623;28;20585;-66
2023/01/02 06:20:58;;;;;;;1.20;1.10;;;18.40;65.50;;;;;;5020301;28;20274;-67
2023/01/02 06:23:24;;;;;;;1.38;1.27;;;18.40;65.60;;;;;;5019522;28;20260;-66
2023/01/02 06:25:50;;;;;;;1.40;1.10;;;18.40;65.50;;;;;;5037293;28;20708;-67
2023/01/02 06:28:16;;;;;;;1.15;1.05;;;18.40;65.50;;;;;;5018567;28;20186;-65
2023/01/02 06:30:41;;;;;;;1.50;1.20;;;18.30;65.40;;;;;;5000074;28;20188;-66
2023/01/02 06:33:07;;;;;;;1.75;1.00;;;18.30;65.30;;;;;;5013234;28;20262;-66
2023/01/02 06:35:33;;;;;;;1.25;1.15;;;18.40;65.50;;;;;;5014773;28;20198;-67
2023/01/02 06:37:59;;;;;;;1.15;1.00;;;18.40;65.50;;;;;;5035898;28;20198;-67
2023/01/02 06:40:24;;;;;;;0.93;0.88;;;18.40;65.40;;;;;;5053393;28;20182;-67
2023/01/02 06:42:50;;;;;;;1.50;1.40;;;18.40;65.40;;;;;;5035433;28;20206;-67
2023/01/02 06:45:16;;;;;;;1.75;1.15;;;18.40;65.40;;;;;;5019198;28;20259;-67
2023/01/02 06:47:41;;;;;;;1.23;0.95;;;18.40;65.30;;;;;;5034830;28;20591;-67
2023/01/02 06:50:08;;;;;;;1.25;1.17;;;18.30;65.10;;;;;;5012883;28;20197;-67
2023/01/02 06:52:33;;;;;;;1.30;1.00;;;18.40;65.30;;;;;;5017917;28;20297;-67
2023/01/02 06:54:59;;;;;;;1.08;1.00;;;18.40;65.30;;;;;;5005434;28;20658;-67
2023/01/02 06:57:29;;;;;;;1.33;1.23;;;18.40;65.30;;;;;;5015571;28;20186;-67
2023/01/02 06:59:55;;;;;;;1.60;1.02;;;18.40;65.20;;;;;;5053099;28;20182;-67
2023/01/02 07:02:20;;;;;;;1.73;1.27;;;18.30;65.10;;;;;;5035542;28;20252;-67
2023/01/02 07:04:46;;;;;;;1.75;1.10;;;18.40;65.20;;;;;;5035155;28;20198;-67
2023/01/02 07:07:12;;;;;;;1.90;0.90;;;18.40;65.20;;;;;;5026999;28;20186;-67
2023/01/02 07:09:37;;;;;;;1.10;1.00;;;18.40;65.20;;;;;;5052449;28;20712;-66
2023/01/02 07:12:04;;;;;;;1.00;0.90;;;18.40;65.20;;;;;;5019006;28;20202;-68
2023/01/02 07:14:29;;;;;;;1.40;1.00;;;18.40;65.20;;;;;;5035227;28;20182;-66
2023/01/02 07:16:55;;;;;;;1.00;1.00;;;18.30;65.10;;;;;;5015586;28;20190;-68
2023/01/02 07:19:21;;;;;;;1.33;1.20;;;18.30;65.10;;;;;;5033516;28;20206;-67
2023/01/02 07:21:47;;;;;;;1.27;0.93;;;18.40;65.20;;;;;;4997948;28;20289;-67
2023/01/02 07:24:14;;;;;;;1.30;1.20;;;18.30;65.10;;;;;;5015416;28;20199;-68
2023/01/02 07:26:41;;;;;;;1.20;1.10;;;18.40;65.20;;;;;;5032636;28;20180;-67
2023/01/02 07:29:07;;;;;;;3.00;1.27;;;18.30;65.10;;;;;;5014877;28;20175;-67
2023/01/02 07:31:33;;;;;;;1.20;1.00;;;18.30;65.10;;;;;;5032102;28;20206;-68
2023/01/02 07:33:58;;;;;;;1.77;1.30;;;18.40;65.20;;;;;;5031137;28;20175;-66
2023/01/02 07:36:24;;;;;;;3.78;1.40;;;18.30;65.10;;;;;;5048228;28;20182;-68
2023/01/02 07:38:51;;;;;;;2.00;1.60;;;18.40;65.20;;;;;;5033300;28;20198;-68
2023/01/02 07:41:23;;;;;;;4.50;2.13;;;18.40;65.20;;;;;;5052331;28;20181;-67
2023/01/02 07:43:49;;;;;;;2.13;1.70;;;18.30;65.10;;;;;;5034438;28;20273;-67
2023/01/02 07:46:18;;;;;;;3.13;2.17;;;18.40;65.20;;;;;;5034407;28;20174;-67
2023/01/02 07:48:45;;;;;;;3.95;2.60;;;18.40;65.20;;;;;;5017681;28;20266;-68
2023/01/02 07:51:11;;;;;;;3.97;2.42;;;18.40;65.20;;;;;;4996034;28;20180;-68
2023/01/02 07:53:38;;;;;;;4.00;2.42;;;18.40;65.20;;;;;;5015445;28;20190;-68
2023/01/02 07:56:04;;;;;;;4.57;3.08;;;18.40;65.20;;;;;;5025361;28;20286;-68
2023/01/02 07:58:30;;;;;;;4.10;2.95;;;18.40;65.20;;;;;;5005884;28;20183;-68
2023/01/02 08:00:57;;;;;;;4.85;3.20;;;18.30;65.00;;;;;;4993599;28;20221;-68
2023/01/02 08:03:23;;;;;;;5.45;3.00;;;18.40;65.20;;;;;;5008770;28;20222;-68
2023/01/02 08:05:49;;;;;;;6.53;3.63;;;18.40;65.20;;;;;;5034165;28;20221;-68
2023/01/02 08:08:16;;;;;;;5.85;3.80;;;18.40;65.20;;;;;;5020770;28;20183;-68
2023/01/02 08:10:41;;;;;;;5.00;3.45;;;18.40;65.10;;;;;;5022306;28;20182;-68
2023/01/02 08:13:08;;;;;;;6.53;3.45;;;18.40;65.10;;;;;;5025992;28;20213;-68
2023/01/02 08:15:34;;;;;;;5.85;3.72;;;18.40;65.10;;;;;;5039632;28;20562;-67
2023/01/02 08:18:00;;;;;;;7.05;4.00;;;18.30;65.00;;;;;;5019082;28;20184;-67
2023/01/02 08:20:26;;;;;;;6.30;4.53;;;18.40;65.10;;;;;;5019378;28;20198;-68
2023/01/02 08:22:54;;;;;;;7.35;4.25;;;18.40;65.00;;;;;;5014393;28;20219;-67
2023/01/02 08:25:20;;;;;;;5.60;3.72;;;18.40;65.00;;;;;;5038606;28;20688;-67
2023/01/02 08:27:46;;;;;;;6.93;4.15;;;18.40;65.00;;;;;;5023829;28;20244;-67
2023/01/02 08:30:12;;;;;;;5.82;4.15;;;18.30;64.90;;;;;;5027682;28;20194;-67
2023/01/02 08:32:38;;;;;;;6.78;4.18;;;18.40;64.90;;;;;;5025281;28;20228;-67
2023/01/02 08:35:06;;;;;;;6.07;4.05;;;18.40;65.00;;;;;;4998093;28;20194;-67
2023/01/02 08:37:33;;;;;;;6.13;4.43;;;18.30;64.80;;;;;;5022353;28;20180;-67
2023/01/02 08:39:59;;;;;;;6.43;4.32;;;18.40;65.00;;;;;;5026015;28;20225;-68
2023/01/02 08:42:24;;;;;;;7.93;5.00;;;18.30;64.80;;;;;;5025427;28;20237;-67
2023/01/02 08:44:50;;;;;;;5.72;4.20;;;18.40;64.90;;;;;;5006827;28;20218;-67
2023/01/02 08:47:16;;;;;;;8.50;4.72;;;18.40;64.90;;;;;;5022258;28;20209;-67
2023/01/02 08:49:42;;;;;;;16.15;5.80;;;18.40;64.90;;;;;;5005544;28;20638;-67
2023/01/02 08:52:08;;;;;;;8.30;4.93;;;18.40;64.90;;;;;;5013242;28;20345;-67
2023/01/02 08:54:34;;;;;;;8.10;4.68;;;18.40;64.90;;;;;;5017840;28;20188;-67
2023/01/02 08:57:01;;;;;;;6.03;4.30;;;18.40;64.90;;;;;;5013026;28;20243;-68
2023/01/02 08:59:26;;;;;;;7.65;5.20;;;18.40;64.90;;;;;;5013857;28;20198;-67
2023/01/02 09:01:53;;;;;;;9.35;5.30;;;18.40;64.80;;;;;;5043419;28;20203;-68
2023/01/02 09:04:19;;;;;;;8.38;5.22;;;18.40;64.70;;;;;;5015444;28;20206;-68
2023/01/02 09:06:46;;;;;;;8.80;4.82;;;18.40;64.70;;;;;;5001639;28;20176;-67
2023/01/02 09:09:15;;;;;;;7.43;4.82;;;18.40;64.80;;;;;;5030783;28;20187;-67
2023/01/02 09:11:49;;;;;;;6.38;4.25;;;18.40;64.70;;;;;;5020755;28;20293;-68
2023/01/02 09:14:16;;;;;;;6.05;4.63;;;18.40;64.60;;;;;;5021119;28;20186;-67
2023/01/02 09:16:42;;;;;;;6.35;4.57;;;18.40;64.60;;;;;;5001270;28;20249;-67
2023/01/02 09:19:08;;;;;;;5.72;4.60;;;18.40;64.60;;;;;;4997895;28;20265;-67
2023/01/02 09:21:34;;;;;;;5.28;4.20;;;18.40;64.60;;;;;;5001646;28;20245;-67
2023/01/02 09:24:00;;;;;;;7.70;5.43;;;18.40;64.60;;;;;;5021226;28;20279;-67
2023/01/02 09:26:26;;;;;;;9.43;5.40;;;18.40;64.80;;;;;;5002008;28;20194;-67
2023/01/02 09:28:52;;;;;;;6.65;4.90;;;18.40;64.80;;;;;;5042027;28;20191;-67
2023/01/02 09:31:19;;;;;;;6.32;5.18;;;18.40;64.80;;;;;;5025653;28;20179;-68
2023/01/02 09:33:47;;;;;;;6.50;4.63;;;18.40;64.80;;;;;;5028434;28;20221;-67
2023/01/02 09:36:16;;;;;;;7.65;4.70;;;18.40;64.70;;;;;;5030678;28;20273;-68
2023/01/02 09:38:42;;;;;;;7.00;4.80;;;18.40;64.80;;;;;;5011303;28;20232;-67
2023/01/02 09:41:20;;;;;;;7.43;5.00;;;18.40;64.70;;;;;;5017252;28;20246;-68
2023/01/02 09:43:56;;;;;;;8.40;4.97;;;18.40;64.70;;;;;;5052287;28;20174;-67
2023/01/02 09:46:41;;;;;;;8.13;5.32;;;18.40;64.70;;;;;;5008749;28;20191;-68
2023/01/02 09:49:17;;;;;;;7.43;4.97;;;18.40;64.70;;;;;;5005377;28;20665;-67
2023/01/02 09:51:43;;;;;;;7.30;5.25;;;18.40;64.70;;;;;;5019373;28;20202;-68
2023/01/02 09:54:30;;;;;;;6.93;4.93;;;18.40;64.70;;;;;;5021820;28;20207;-68
2023/01/02 09:57:10;;;;;;;7.57;4.70;;;18.40;64.90;;;;;;5018417;28;20229;-68
2023/01/02 09:59:52;;;;;;;8.13;5.38;;;18.40;64.60;;;;;;5044454;28;20178;-68
2023/01/02 10:02:41;;;;;;;6.55;4.97;;;18.40;64.50;;;;;;5017734;28;20217;-67
2023/01/02 10:05:16;;;;;;;7.75;4.80;;;18.40;64.60;;;;;;5019873;28;20207;-68
2023/01/02 10:08:21;;;;;;;6.95;5.00;;;18.40;64.40;;;;;;5019096;28;20687;-68
2023/01/02 10:11:06;;;;;;;8.35;5.38;;;18.40;64.40;;;;;;5025803;28;20190;-68
2023/01/02 10:13:51;;;;;;;5.80;4.47;;;18.40;64.30;;;;;;5020697;28;20265;-67
2023/01/02 10:16:25;;;;;;;7.57;4.90;;;18.40;64.30;;;;;;5015027;28;20195;-67
2023/01/02 10:18:54;;;;;;;7.35;4.57;;;18.40;65.10;;;;;;5024333;28;20723;-67
2023/01/02 10:21:26;;;;;;;7.40;5.20;;;18.40;64.30;;;;;;5027598;28;20275;-68
2023/01/02 10:23:55;;;;;;;6.25;4.68;;;18.40;64.40;;;;;;5011692;22;1320594;-72
2023/01/02 10:26:30;;;;;;;7.80;4.63;;;18.40;64.30;;;;;;5042963;28;20197;-71
2023/01/02 10:29:04;;;;;;;6.45;4.78;;;18.40;64.30;;;;;;5069525;28;20683;-72
2023/01/02 10:31:59;;;;;;;8.90;4.90;;;18.50;64.40;;;;;;5061624;28;20220;-72
2023/01/02 10:34:37;;;;;;;7.25;4.68;;;18.40;64.40;;;;;;5029922;28;20194;-72
2023/01/02 10:37:14;;;;;;;6.72;4.85;;;18.50;64.50;;;;;;5040566;28;20191;-72
2023/01/02 10:39:44;;;;;;;7.32;4.97;;;18.40;64.30;;;;;;5020894;28;20207;-73
2023/01/02 10:42:15;;;;;;;7.65;5.10;;;18.40;64.30;;;;;;5012655;28;20209;-72
2023/01/02 10:44:43;;;;;;;7.65;4.82;;;18.40;64.40;;;;;;5053375;28;20211;-72
2023/01/02 10:47:35;;;;;;;7.93;4.80;;;18.40;64.40;;;;;;5035166;28;20187;-72
2023/01/02 10:50:06;;;;;;;8.02;5.45;;;18.50;64.40;;;;;;5019356;28;20199;-72
2023/01/02 10:52:44;;;;;;;5.45;4.20;;;18.50;64.40;;;;;;5029225;28;20204;-72
2023/01/02 10:55:10;;;;;;;6.70;5.10;;;18.40;64.30;;;;;;5038778;28;20214;-72
2023/01/02 10:57:49;;;;;;;7.18;5.03;;;18.40;64.40;;;;;;5023834;28;20277;-72
2023/01/02 11:00:18;;;;;;;6.65;5.10;;;18.50;64.40;;;;;;5035349;28;20194;-71
2023/01/02 11:02:51;;;;;;;6.13;4.43;;;18.40;64.30;;;;;;5043187;28;20203;-74
2023/01/02 11:05:22;;;;;;;6.82;4.72;;;18.50;64.50;;;;;;5043589;28;20266;-72
2023/01/02 11:07:50;;;;;;;7.22;4.70;;;18.50;64.40;;;;;;5033138;28;20193;-74
2023/01/02 11:10:28;;;;;;;7.10;4.30;;;18.50;64.30;;;;;;5017165;28;20199;-72
2023/01/02 11:12:55;;;;;;;8.82;4.90;;;18.40;64.80;;;;;;5040076;28;20206;-72
2023/01/02 11:15:29;;;;;;;6.63;4.97;;;18.40;64.80;;;;;;5040458;28;20209;-72
2023/01/02 11:17:57;;;;;;;7.72;5.15;;;18.50;64.80;;;;;;5029399;28;20254;-72
2023/01/02 11:20:34;;;;;;;7.18;4.70;;;18.50;64.80;;;;;;5044416;28;20195;-72
2023/01/02 11:23:02;;;;;;;7.55;4.75;;;18.50;64.70;;;;;;5017534;28;20220;-72
2023/01/02 11:25:39;;;;;;;8.38;5.00;;;18.50;64.70;;;;;;5041773;28;20207;-71
2023/01/02 11:28:06;;;;;;;6.13;4.30;;;18.50;64.70;;;;;;5042342;28;20574;-71
2023/01/02 11:30:43;;;;;;;6.65;4.75;;;18.50;64.60;;;;;;5044135;28;20183;-71
2023/01/02 11:33:23;;;;;;;6.18;4.10;;;18.50;64.60;;;;;;5010526;28;20693;-71
2023/01/02 11:36:04;;;;;;;6.72;4.57;;;18.40;64.50;;;;;;5067841;28;20286;-72
2023/01/02 11:38:47;;;;;;;8.18;4.75;;;18.50;64.40;;;;;;5036529;28;20210;-71
2023/01/02 11:44:55;;;;;;;7.72;4.82;;;18.50;64.40;;;;;;5041450;28;20204;-71
2023/01/02 11:47:56;;;;;;;6.78;4.60;;;18.40;64.20;;;;;;5041686;28;20196;-72
2023/01/02 11:50:29;;;;;;;6.80;4.95;;;18.50;64.30;;;;;;5037744;28;20249;-72
2023/01/02 11:53:17;;;;;;;7.15;4.43;;;18.50;64.40;;;;;;5039264;28;20210;-72
2023/01/02 11:55:49;;;;;;;7.20;4.20;;;18.40;64.30;;;;;;5031124;28;20201;-72
2023/01/02 11:58:33;;;;;;;7.72;4.20;;;18.50;64.40;;;;;;5027887;28;20186;-72
2023/01/02 12:01:34;;;;;;;6.63;4.85;;;18.50;64.10;;;;;;5025985;28;20676;-72
2023/01/02 12:04:00;;;;;;;5.85;4.25;;;18.50;64.10;;;;;;5017740;28;20242;-72
2023/01/02 12:06:53;;;;;;;6.72;3.97;;;18.40;64.10;;;;;;5051178;28;20214;-72
2023/01/02 12:10:01;;;;;;;7.35;4.63;;;18.50;64.50;;;;;;5035034;28;20194;-71
2023/01/02 12:13:38;;;;;;;9.00;4.60;;;18.50;64.50;;;;;;5036009;28;20341;-71
2023/01/02 12:16:43;;;;;;;7.65;4.25;;;18.50;64.50;;;;;;5007327;28;20251;-72
2023/01/02 12:19:30;;;;;;;6.97;4.30;;;18.50;64.40;;;;;;5034053;28;20187;-72
2023/01/02 12:22:36;;;;;;;5.45;3.83;;;18.50;64.40;;;;;;5040012;28;20198;-72
2023/01/02 12:25:14;;;;;;;5.40;3.92;;;18.50;64.20;;;;;;5022246;28;20755;-72
2023/01/02 12:27:51;;;;;;;8.32;4.53;;;18.50;64.20;;;;;;5034349;28;20262;-72
2023/01/02 12:30:20;;;;;;;6.63;4.07;;;18.50;64.20;;;;;;5031357;28;20724;-72
2023/01/02 12:33:50;;;;;;;5.53;4.05;;;18.50;64.30;;;;;;5031709;28;20230;-72
2023/01/02 12:36:57;;;;;;;7.25;4.03;;;18.50;64.00;;;;;;5038576;28;20211;-72
2023/01/02 12:40:01;;;;;;;7.35;4.00;;;18.50;64.00;;;;;;5036460;28;20236;-73
2023/01/02 12:42:36;;;;;;;5.95;4.25;;;18.50;64.10;;;;;;5020479;28;20234;-71
2023/01/02 12:45:02;;;;;;;6.45;4.03;;;18.50;64.00;;;;;;5050052;28;20290;-71
2023/01/02 12:48:06;;;;;;;6.05;4.13;;;18.50;64.10;;;;;;5041385;28;20182;-72
2023/01/02 12:51:01;;;;;;;7.50;3.97;;;18.50;64.10;;;;;;5042825;28;20217;-72
2023/01/02 12:53:55;;;;;;;8.55;3.65;;;18.50;64.00;;;;;;5004044;28;20238;-71
2023/01/02 12:57:07;;;;;;;4.88;3.80;;;18.50;64.10;;;;;;5038199;28;20205;-71
2023/01/02 13:00:06;;;;;;;9.80;4.45;;;18.50;64.10;;;;;;5018258;28;20195;-71
2023/01/02 13:03:13;;;;;;;5.30;3.67;;;18.50;64.00;;;;;;5051235;28;20214;-71
2023/01/02 13:05:54;;;;;;;5.22;3.88;;;18.50;64.00;;;;;;5049411;28;20214;-71
2023/01/02 13:08:31;;;;;;;7.38;4.20;;;18.50;64.10;;;;;;5047062;28;20178;-72
2023/01/02 13:11:04;;;;;;;7.50;4.15;;;18.50;63.90;;;;;;5043804;28;20192;-72
2023/01/02 13:13:36;;;;;;;7.03;4.28;;;18.50;64.00;;;;;;5029186;28;20198;-71
2023/01/02 13:16:11;;;;;;;5.45;3.75;;;18.50;63.90;;;;;;5036624;28;20191;-71
2023/01/02 13:19:09;;;;;;;6.10;4.00;;;18.50;63.90;;;;;;5025951;28;20210;-72
2023/01/02 13:21:55;;;;;;;5.68;3.65;;;18.50;64.10;;;;;;5049874;28;20210;-72